createdAt,value
2022-09-21T00:01:28.613Z,0.60
2022-09-21T00:03:56.224Z,0.70
2022-09-21T00:06:23.370Z,1.20
2022-09-21T00:08:50.269Z,1.08
2022-09-21T00:11:21.042Z,2.15
2022-09-21T00:13:47.770Z,0.80
2022-09-21T00:16:15.395Z,1.05
2022-09-21T00:18:41.939Z,0.98
2022-09-21T00:21:09.199Z,1.25
2022-09-21T00:23:36.498Z,2.15
2022-09-21T00:26:13.926Z,1.00
2022-09-21T00:28:40.792Z,1.85
2022-09-21T00:31:09.367Z,1.05
2022-09-21T00:33:35.825Z,1.48
2022-09-21T00:36:07.250Z,3.00
2022-09-21T00:38:34.566Z,0.90
2022-09-21T00:41:01.149Z,1.00
2022-09-21T00:43:27.796Z,0.90
2022-09-21T00:46:02.410Z,1.63
2022-09-21T00:48:29.540Z,0.80
2022-09-21T00:50:57.277Z,4.65
2022-09-21T00:53:23.852Z,1.30
2022-09-21T00:55:55.894Z,2.90
2022-09-21T00:58:25.709Z,1.25
2022-09-21T01:00:52.658Z,1.30
2022-09-21T01:03:19.273Z,0.95
2022-09-21T01:05:45.854Z,0.88
2022-09-21T01:08:13.569Z,0.80
2022-09-21T01:11:00.475Z,0.88
2022-09-21T01:13:34.234Z,2.10
2022-09-21T01:16:09.325Z,0.82
2022-09-21T01:18:42.144Z,1.08
2022-09-21T01:21:11.743Z,1.75
2022-09-21T01:23:47.826Z,0.73
2022-09-21T01:26:34.258Z,0.90
2022-09-21T01:29:16.955Z,1.42
2022-09-21T01:31:43.559Z,0.88
2022-09-21T01:34:12.325Z,3.05
2022-09-21T01:36:40.653Z,1.00
2022-09-21T01:39:12.402Z,0.80
2022-09-21T01:41:40.431Z,0.98
2022-09-21T01:44:08.706Z,0.93
2022-09-21T01:46:36.409Z,1.75
2022-09-21T01:49:10.654Z,0.80
2022-09-21T01:51:39.124Z,1.20
2022-09-21T01:54:10.739Z,1.35
2022-09-21T01:56:50.575Z,1.08
2022-09-21T01:59:21.910Z,0.88
2022-09-21T02:01:51.206Z,1.08
2022-09-21T02:04:18.449Z,1.33
2022-09-21T02:06:46.745Z,0.85
2022-09-21T02:09:14.159Z,0.90
2022-09-21T02:11:43.992Z,1.40
2022-09-21T02:14:18.259Z,1.02
2022-09-21T02:17:04.805Z,0.93
2022-09-21T02:19:31.218Z,0.80
2022-09-21T02:22:00.328Z,2.42
2022-09-21T02:24:35.623Z,0.82
2022-09-21T02:27:18.728Z,0.82
2022-09-21T02:30:03.401Z,0.70
2022-09-21T02:32:50.444Z,1.08
2022-09-21T02:35:42.965Z,0.93
2022-09-21T02:38:12.480Z,1.10
2022-09-21T02:40:46.348Z,1.10
2022-09-21T02:43:16.221Z,0.98
2022-09-21T02:45:48.162Z,0.90
2022-09-21T02:48:18.539Z,0.80
2022-09-21T02:50:50.504Z,1.10
2022-09-21T02:53:20.085Z,1.00
2022-09-21T02:55:46.996Z,0.80
2022-09-21T02:58:15.040Z,1.65
2022-09-21T03:00:41.614Z,0.75
2022-09-21T03:03:17.104Z,0.85
2022-09-21T03:05:48.632Z,4.60
2022-09-21T03:08:15.575Z,2.05
2022-09-21T03:10:41.993Z,1.73
2022-09-21T03:13:12.065Z,1.00
2022-09-21T03:15:39.388Z,1.38
2022-09-21T03:18:06.504Z,1.48
2022-09-21T03:20:33.605Z,0.93
2022-09-21T03:23:00.630Z,1.75
2022-09-21T03:25:27.658Z,1.55
2022-09-21T03:27:54.285Z,0.80
2022-09-21T03:30:21.690Z,5.43
2022-09-21T03:32:51.645Z,1.75
2022-09-21T03:35:18.550Z,1.08
2022-09-21T03:37:46.175Z,1.40
2022-09-21T03:40:12.917Z,1.27
2022-09-21T03:42:42.581Z,1.77
2022-09-21T03:45:10.059Z,0.93
2022-09-21T03:47:37.160Z,1.20
2022-09-21T03:50:07.897Z,0.85
2022-09-21T03:52:37.785Z,3.38
2022-09-21T03:55:06.621Z,1.10
2022-09-21T03:57:34.531Z,0.90
2022-09-21T04:00:03.213Z,0.70
2022-09-21T04:02:30.250Z,0.98
2022-09-21T04:04:56.851Z,1.83
2022-09-21T04:07:23.455Z,2.15
2022-09-21T04:09:49.954Z,1.33
2022-09-21T04:12:16.546Z,2.08
2022-09-21T04:14:43.064Z,0.80
2022-09-21T04:17:09.700Z,0.95
2022-09-21T04:19:36.263Z,0.80
2022-09-21T04:22:02.879Z,1.13
2022-09-21T04:24:31.078Z,1.35
2022-09-21T04:26:57.739Z,0.80
2022-09-21T04:29:24.290Z,0.80
2022-09-21T04:31:50.778Z,0.90
2022-09-21T04:34:17.236Z,1.00
2022-09-21T04:36:43.757Z,1.38
2022-09-21T04:39:10.319Z,1.35
2022-09-21T04:41:36.844Z,1.17
2022-09-21T04:44:03.475Z,1.45
2022-09-21T04:46:30.215Z,1.00
2022-09-21T04:48:56.837Z,1.17
2022-09-21T04:51:23.419Z,0.95
2022-09-21T04:53:49.997Z,1.50
2022-09-21T04:56:16.860Z,1.30
2022-09-21T04:58:43.794Z,1.38
2022-09-21T05:01:11.806Z,1.02
2022-09-21T05:03:38.470Z,2.88
2022-09-21T05:06:05.372Z,1.23
2022-09-21T05:08:50.463Z,3.58
2022-09-21T05:11:19.178Z,1.23
2022-09-21T05:13:46.052Z,1.30
2022-09-21T05:16:12.664Z,2.92
2022-09-21T05:18:39.202Z,1.17
2022-09-21T05:21:06.352Z,1.75
2022-09-21T05:23:33.344Z,2.22
2022-09-21T05:25:59.872Z,1.15
2022-09-21T05:28:26.849Z,1.77
2022-09-21T05:31:17.932Z,1.30
2022-09-21T05:33:50.665Z,1.42
2022-09-21T05:36:35.885Z,1.48
2022-09-21T05:39:02.497Z,1.65
2022-09-21T05:41:29.546Z,1.60
2022-09-21T05:43:56.596Z,1.25
2022-09-21T05:46:39.776Z,2.47
2022-09-21T05:49:13.546Z,1.02
2022-09-21T05:51:53.017Z,1.30
2022-09-21T05:54:28.757Z,3.08
2022-09-21T05:56:55.167Z,2.05
2022-09-21T05:59:24.467Z,2.13
2022-09-21T06:01:58.758Z,1.45
2022-09-21T06:04:25.368Z,1.38
2022-09-21T06:06:52.576Z,2.35
2022-09-21T06:09:20.883Z,2.00
2022-09-21T06:11:48.037Z,1.42
2022-09-21T06:14:14.525Z,1.63
2022-09-21T06:16:42.000Z,2.53
2022-09-21T06:19:11.940Z,4.40
2022-09-21T06:21:38.423Z,15.15
2022-09-21T06:24:05.033Z,9.40
2022-09-21T06:26:31.489Z,2.90
2022-09-21T06:28:57.947Z,6.25
2022-09-21T06:31:24.548Z,3.28
2022-09-21T06:33:51.197Z,2.42
2022-09-21T06:36:17.916Z,3.28
2022-09-21T06:38:44.703Z,1.42
2022-09-21T06:41:11.467Z,0.73
2022-09-21T06:43:38.642Z,1.30
2022-09-21T06:46:05.332Z,2.58
2022-09-21T06:48:33.253Z,1.05
2022-09-21T06:51:00.407Z,1.15
2022-09-21T06:53:27.832Z,1.63
2022-09-21T06:55:54.414Z,2.65
2022-09-21T06:58:20.964Z,2.80
2022-09-21T07:00:47.694Z,0.95
2022-09-21T07:03:14.251Z,1.10
2022-09-21T07:05:40.758Z,3.35
2022-09-21T07:10:05.169Z,1.35
2022-09-21T07:10:53.843Z,4.15
2022-09-21T07:13:20.388Z,11.38
2022-09-21T07:15:50.228Z,16.45
2022-09-21T07:18:19.317Z,5.43
2022-09-21T07:20:45.787Z,12.18
2022-09-21T07:23:14.699Z,9.05
2022-09-21T07:25:41.609Z,4.05
2022-09-21T07:28:08.287Z,2.05
2022-09-21T07:30:35.798Z,4.28
2022-09-21T07:33:02.247Z,6.28
2022-09-21T07:35:28.777Z,7.63
2022-09-21T07:37:57.607Z,7.80
2022-09-21T07:40:25.335Z,31.58
2022-09-21T07:42:52.704Z,528.50
2022-09-21T07:45:19.325Z,562.55
2022-09-21T07:47:46.447Z,370.15
2022-09-21T07:50:12.967Z,391.45
2022-09-21T07:52:39.437Z,552.33
2022-09-21T07:55:06.437Z,376.35
2022-09-21T07:57:51.449Z,565.00
2022-09-21T08:00:18.047Z,659.15
2022-09-21T08:02:47.691Z,660.75
2022-09-21T08:05:14.588Z,806.58
2022-09-21T08:07:41.245Z,660.42
2022-09-21T08:10:07.954Z,468.98
2022-09-21T08:12:34.509Z,249.20
2022-09-21T08:15:01.307Z,215.25
2022-09-21T08:17:27.747Z,187.90
2022-09-21T08:19:54.889Z,173.80
2022-09-21T08:22:25.508Z,156.43
2022-09-21T08:24:52.547Z,143.38
2022-09-21T08:27:20.387Z,128.63
2022-09-21T08:29:46.809Z,124.47
2022-09-21T08:32:27.536Z,106.38
2022-09-21T08:34:59.787Z,101.88
2022-09-21T08:37:26.297Z,106.88
2022-09-21T08:39:52.747Z,94.43
2022-09-21T08:42:38.087Z,85.05
2022-09-21T08:45:16.868Z,81.53
2022-09-21T08:47:46.908Z,78.53
2022-09-21T08:50:16.109Z,72.40
2022-09-21T08:52:45.096Z,74.18
2022-09-21T08:55:20.141Z,66.70
2022-09-21T08:57:46.657Z,65.75
2022-09-21T09:00:14.449Z,65.35
2022-09-21T09:02:59.457Z,61.17
2022-09-21T09:05:33.637Z,58.15
2022-09-21T09:08:26.456Z,55.25
2022-09-21T09:11:11.544Z,52.47
2022-09-21T09:13:41.038Z,52.10
2022-09-21T09:16:07.505Z,47.53
2022-09-21T09:18:54.135Z,48.28
2022-09-21T09:21:30.388Z,44.92
2022-09-21T09:24:19.757Z,45.65
2022-09-21T09:26:52.848Z,44.33
2022-09-21T09:29:26.477Z,43.60
2022-09-21T09:31:54.914Z,41.08
2022-09-21T09:34:25.050Z,43.20
2022-09-21T09:36:58.643Z,42.67
2022-09-21T09:39:27.018Z,36.58
2022-09-21T09:42:09.287Z,37.15
2022-09-21T09:44:54.435Z,37.80
2022-09-21T09:47:36.987Z,30.13
2022-09-21T09:50:06.728Z,34.70
2022-09-21T09:52:33.622Z,37.60
2022-09-21T09:55:00.847Z,28.58
2022-09-21T09:57:29.620Z,29.80
2022-09-21T09:59:59.461Z,30.02
2022-09-21T10:02:27.007Z,27.20
2022-09-21T10:05:06.598Z,28.08
2022-09-21T10:07:38.517Z,28.42
2022-09-21T10:10:23.707Z,26.67
2022-09-21T10:12:51.557Z,23.23
2022-09-21T10:15:19.117Z,19.98
2022-09-21T10:17:46.073Z,23.85
2022-09-21T10:20:17.731Z,23.83
2022-09-21T10:22:46.917Z,22.63
2022-09-21T10:25:16.995Z,20.60
2022-09-21T10:27:46.579Z,20.80
2022-09-21T10:30:33.427Z,18.10
2022-09-21T10:33:00.090Z,17.58
2022-09-21T10:35:27.289Z,17.70
2022-09-21T10:38:18.552Z,17.73
2022-09-21T10:40:48.707Z,18.30
2022-09-21T10:43:34.779Z,17.75
2022-09-21T10:46:02.679Z,15.30
2022-09-21T10:48:29.587Z,17.10
2022-09-21T10:50:56.617Z,12.50
2022-09-21T10:53:30.483Z,18.20
2022-09-21T10:56:16.397Z,13.55
2022-09-21T10:59:02.237Z,12.60
2022-09-21T11:01:29.309Z,10.73
2022-09-21T11:04:25.467Z,10.50
2022-09-21T11:06:54.167Z,9.13
2022-09-21T11:09:24.227Z,7.45
2022-09-21T11:12:04.515Z,8.95
2022-09-21T11:15:03.260Z,8.13
2022-09-21T11:17:32.657Z,8.50
2022-09-21T11:20:19.425Z,6.13
2022-09-21T11:22:57.786Z,10.95
2022-09-21T11:25:42.459Z,8.38
2022-09-21T11:28:33.667Z,6.80
2022-09-21T11:31:00.207Z,7.43
2022-09-21T11:33:47.489Z,6.28
2022-09-21T11:36:23.467Z,10.07
2022-09-21T11:38:53.026Z,7.00
2022-09-21T11:41:22.228Z,4.15
2022-09-21T11:43:48.735Z,5.82
2022-09-21T11:46:37.361Z,6.65
2022-09-21T11:49:12.597Z,5.80
2022-09-21T11:51:48.107Z,6.28
2022-09-21T11:54:28.866Z,3.42
2022-09-21T11:57:18.928Z,7.60
2022-09-21T11:59:48.547Z,2.97
2022-09-21T12:02:15.138Z,3.05
2022-09-21T12:04:50.587Z,4.10
2022-09-21T12:07:25.606Z,3.88
2022-09-21T12:10:08.808Z,4.85
2022-09-21T12:12:37.425Z,3.42
2022-09-21T12:15:11.669Z,4.32
2022-09-21T12:17:44.056Z,3.38
2022-09-21T12:20:16.397Z,2.53
2022-09-21T12:22:45.178Z,3.33
2022-09-21T12:25:26.437Z,1.90
2022-09-21T12:27:59.048Z,2.10
2022-09-21T12:30:25.608Z,3.22
2022-09-21T12:32:55.976Z,4.13
2022-09-21T12:35:26.277Z,1.95
2022-09-21T12:38:05.395Z,2.00
2022-09-21T12:40:36.366Z,1.73
2022-09-21T12:43:11.858Z,3.45
2022-09-21T12:45:48.247Z,3.08
2022-09-21T12:48:22.510Z,1.83
2022-09-21T12:51:05.066Z,2.10
2022-09-21T12:53:34.016Z,1.75
2022-09-21T12:56:10.280Z,2.33
2022-09-21T12:58:50.789Z,2.08
2022-09-21T13:01:26.829Z,1.60
2022-09-21T13:03:56.318Z,1.90
2022-09-21T13:06:31.213Z,2.50
2022-09-21T13:09:01.207Z,2.13
2022-09-21T13:11:27.788Z,1.70
2022-09-21T13:13:59.529Z,3.38
2022-09-21T13:16:33.566Z,1.88
2022-09-21T13:19:04.949Z,2.35
2022-09-21T13:21:33.487Z,1.95
2022-09-21T13:24:01.647Z,1.25
2022-09-21T13:26:31.337Z,1.30
2022-09-21T13:28:58.316Z,1.20
2022-09-21T13:31:41.302Z,1.77
2022-09-21T13:34:17.247Z,1.40
2022-09-21T13:36:43.737Z,1.60
2022-09-21T13:39:19.787Z,2.25
2022-09-21T13:42:03.450Z,1.38
2022-09-21T13:44:36.387Z,3.67
2022-09-21T13:47:02.998Z,1.25
2022-09-21T13:49:34.253Z,5.18
2022-09-21T13:52:05.907Z,3.03
2022-09-21T13:54:39.707Z,1.67
2022-09-21T13:57:15.375Z,2.05
2022-09-21T13:59:43.696Z,2.95
2022-09-21T14:02:23.895Z,1.75
2022-09-21T14:04:51.052Z,1.23
2022-09-21T14:07:17.888Z,1.73
2022-09-21T14:10:10.618Z,1.20
2022-09-21T14:12:44.636Z,3.10
2022-09-21T14:15:17.408Z,2.03
2022-09-21T14:17:44.259Z,1.10
2022-09-21T14:20:31.960Z,1.67
2022-09-21T14:23:29.558Z,3.03
2022-09-21T14:25:56.958Z,4.20
2022-09-21T14:28:51.332Z,2.03
2022-09-21T14:31:20.924Z,2.10
2022-09-21T14:33:50.248Z,5.55
2022-09-21T14:36:19.778Z,5.25
2022-09-21T14:38:53.929Z,2.42
2022-09-21T14:41:23.277Z,1.92
2022-09-21T14:43:52.548Z,2.67
2022-09-21T14:46:32.718Z,38.45
2022-09-21T14:49:07.537Z,74.55
2022-09-21T14:51:38.305Z,30.23
2022-09-21T14:54:04.969Z,31.95
2022-09-21T14:56:43.587Z,26.20
2022-09-21T14:59:30.948Z,23.25
2022-09-21T15:01:59.752Z,19.92
2022-09-21T15:04:32.017Z,17.48
2022-09-21T15:07:32.065Z,13.50
2022-09-21T15:10:35.509Z,15.88
2022-09-21T15:13:05.810Z,17.50
2022-09-21T15:15:51.985Z,13.70
2022-09-21T15:18:22.370Z,10.55
2022-09-21T15:21:04.422Z,12.82
2022-09-21T15:23:40.607Z,12.07
2022-09-21T15:26:19.444Z,10.50
2022-09-21T15:29:08.296Z,12.80
2022-09-21T15:31:35.870Z,9.98
2022-09-21T15:34:05.079Z,7.78
2022-09-21T15:36:34.187Z,9.85
2022-09-21T15:39:00.867Z,8.25
2022-09-21T15:41:39.568Z,7.30
2022-09-21T15:44:12.689Z,6.60
2022-09-21T15:46:41.609Z,7.18
2022-09-21T15:49:12.345Z,7.38
2022-09-21T15:51:41.708Z,6.85
2022-09-21T15:54:29.847Z,5.63
2022-09-21T15:56:56.417Z,7.05
2022-09-21T15:59:23.037Z,10.63
2022-09-21T16:01:50.748Z,6.40
2022-09-21T16:04:22.107Z,7.60
2022-09-21T16:06:58.637Z,4.95
2022-09-21T16:09:26.029Z,8.45
2022-09-21T16:11:53.115Z,5.43
2022-09-21T16:14:38.537Z,6.43
2022-09-21T16:17:06.997Z,5.53
2022-09-21T16:19:42.170Z,3.28
2022-09-21T16:22:12.537Z,5.30
2022-09-21T16:24:44.217Z,6.57
2022-09-21T16:27:15.186Z,4.55
2022-09-21T16:29:43.548Z,7.05
2022-09-21T16:32:14.737Z,3.58
2022-09-21T16:34:42.618Z,3.95
2022-09-21T16:37:27.457Z,4.50
2022-09-21T16:39:56.147Z,4.63
2022-09-21T16:42:23.790Z,4.72
2022-09-21T16:44:50.492Z,4.43
2022-09-21T16:47:25.310Z,5.50
2022-09-21T16:49:55.850Z,8.02
2022-09-21T16:52:25.818Z,6.45
2022-09-21T16:54:52.309Z,5.95
2022-09-21T16:57:18.807Z,2.50
2022-09-21T16:59:45.375Z,4.32
2022-09-21T17:02:14.150Z,1.67
2022-09-21T17:04:41.009Z,3.00
2022-09-21T17:07:07.697Z,2.40
2022-09-21T17:09:35.578Z,5.28
2022-09-21T17:12:03.494Z,3.65
2022-09-21T17:14:35.314Z,3.17
2022-09-21T17:17:06.537Z,6.30
2022-09-21T17:19:33.167Z,3.35
2022-09-21T17:21:59.789Z,3.08
2022-09-21T17:24:49.329Z,2.30
2022-09-21T17:27:17.811Z,3.83
2022-09-21T17:29:49.513Z,1.45
2022-09-21T17:32:17.929Z,2.05
2022-09-21T17:34:46.122Z,2.35
2022-09-21T17:37:12.627Z,5.65
2022-09-21T17:39:39.127Z,1.92
2022-09-21T17:42:13.577Z,2.03
2022-09-21T17:44:59.652Z,1.77
2022-09-21T17:47:29.587Z,1.23
2022-09-21T17:50:16.349Z,1.65
2022-09-21T17:53:02.019Z,1.98
2022-09-21T17:55:28.857Z,2.33
2022-09-21T17:58:25.519Z,1.55
2022-09-21T18:01:04.077Z,1.35
2022-09-21T18:03:32.567Z,1.60
2022-09-21T18:06:01.747Z,1.60
2022-09-21T18:08:29.390Z,2.10
2022-09-21T18:11:22.336Z,2.30
2022-09-21T18:13:58.128Z,3.05
2022-09-21T18:16:24.815Z,7.70
2022-09-21T18:18:51.297Z,4.03
2022-09-21T18:21:22.038Z,3.58
2022-09-21T18:24:04.551Z,4.43
2022-09-21T18:26:33.154Z,1.65
2022-09-21T18:28:59.907Z,4.70
2022-09-21T18:31:30.423Z,7.00
2022-09-21T18:34:00.437Z,1.73
2022-09-21T18:36:29.929Z,3.70
2022-09-21T18:39:18.467Z,1.52
2022-09-21T18:41:48.168Z,3.17
2022-09-21T18:44:37.622Z,1.30
2022-09-21T18:47:04.709Z,2.30
2022-09-21T18:49:37.047Z,1.60
2022-09-21T18:52:22.257Z,1.95
2022-09-21T18:54:48.817Z,2.60
2022-09-21T18:57:15.497Z,1.48
2022-09-21T18:59:43.587Z,5.45
2022-09-21T19:02:15.440Z,1.98
2022-09-21T19:04:43.229Z,1.30
2022-09-21T19:07:17.645Z,2.17
2022-09-21T19:10:10.657Z,1.85
2022-09-21T19:12:40.108Z,1.02
2022-09-21T19:15:14.595Z,1.40
2022-09-21T19:17:58.177Z,2.53
2022-09-21T19:20:43.378Z,2.20
2022-09-21T19:23:16.487Z,1.23
2022-09-21T19:25:49.977Z,1.92
2022-09-21T19:28:17.027Z,1.70
2022-09-21T19:30:44.242Z,2.28
2022-09-21T19:33:45.498Z,3.40
2022-09-21T19:36:06.677Z,2.30
2022-09-21T19:38:34.358Z,1.35
2022-09-21T19:41:04.007Z,3.10
2022-09-21T19:43:39.769Z,2.38
2022-09-21T19:46:06.370Z,3.50
2022-09-21T19:48:43.086Z,2.03
2022-09-21T19:51:38.717Z,2.38
2022-09-21T19:54:30.256Z,2.58
2022-09-21T19:57:15.287Z,1.42
2022-09-21T19:59:45.014Z,2.33
2022-09-21T20:02:11.526Z,1.23
2022-09-21T20:04:42.847Z,1.52
2022-09-21T20:07:19.008Z,1.23
2022-09-21T20:09:50.538Z,1.63
2022-09-21T20:12:26.187Z,1.50
2022-09-21T20:14:58.436Z,3.33
2022-09-21T20:17:31.589Z,1.58
2022-09-21T20:20:08.567Z,1.33
2022-09-21T20:22:36.414Z,1.52
2022-09-21T20:25:09.667Z,2.08
2022-09-21T20:27:40.168Z,2.00
2022-09-21T20:30:08.299Z,1.80
2022-09-21T20:32:37.767Z,2.75
2022-09-21T20:35:10.797Z,2.42
2022-09-21T20:37:37.930Z,1.80
2022-09-21T20:40:04.573Z,2.08
2022-09-21T20:42:31.217Z,1.20
2022-09-21T20:44:57.988Z,1.20
2022-09-21T20:47:24.587Z,1.95
2022-09-21T20:49:51.007Z,1.85
2022-09-21T20:52:17.493Z,1.88
2022-09-21T20:54:49.465Z,1.45
2022-09-21T20:57:16.947Z,2.00
2022-09-21T20:59:44.650Z,1.42
2022-09-21T21:02:11.677Z,1.42
2022-09-21T21:04:38.185Z,1.67
2022-09-21T21:07:05.067Z,1.27
2022-09-21T21:09:31.957Z,1.60
2022-09-21T21:11:59.256Z,1.70
2022-09-21T21:14:29.187Z,1.20
2022-09-21T21:16:55.747Z,1.83
2022-09-21T21:19:22.428Z,1.17
2022-09-21T21:21:49.492Z,1.40
2022-09-21T21:24:35.775Z,1.40
2022-09-21T21:27:03.750Z,2.42
2022-09-21T21:29:30.973Z,2.22
2022-09-21T21:31:57.604Z,1.40
2022-09-21T21:34:24.208Z,1.50
2022-09-21T21:36:50.729Z,1.20
2022-09-21T21:39:17.147Z,2.97
2022-09-21T21:41:43.740Z,1.20
2022-09-21T21:44:11.681Z,1.63
2022-09-21T21:46:38.149Z,1.40
2022-09-21T21:49:05.009Z,1.27
2022-09-21T21:51:31.668Z,1.83
2022-09-21T21:53:58.207Z,1.52
2022-09-21T21:56:24.747Z,1.63
2022-09-21T21:58:51.790Z,1.30
2022-09-21T22:01:20.953Z,1.70
2022-09-21T22:03:48.288Z,1.80
2022-09-21T22:06:14.757Z,1.33
2022-09-21T22:08:41.222Z,1.00
2022-09-21T22:11:07.797Z,2.30
2022-09-21T22:13:36.867Z,1.23
2022-09-21T22:16:05.063Z,1.33
2022-09-21T22:18:32.448Z,1.20
2022-09-21T22:21:03.431Z,1.27
2022-09-21T22:23:30.077Z,1.50
2022-09-21T22:26:08.378Z,1.25
2022-09-21T22:28:35.824Z,1.33
2022-09-21T22:31:02.622Z,1.33
2022-09-21T22:33:33.396Z,1.50
2022-09-21T22:36:19.068Z,1.58
2022-09-21T22:38:46.217Z,1.15
2022-09-21T22:41:14.029Z,3.03
2022-09-21T22:43:40.778Z,2.53
2022-09-21T22:46:07.885Z,1.60
2022-09-21T22:48:35.195Z,1.30
2022-09-21T22:51:02.038Z,1.25
2022-09-21T22:53:28.642Z,3.05
2022-09-21T22:56:03.528Z,1.20
2022-09-21T22:58:30.706Z,1.15
2022-09-21T23:01:07.632Z,1.13
2022-09-21T23:03:34.617Z,1.35
2022-09-21T23:06:01.387Z,1.65
2022-09-21T23:08:28.569Z,1.20
2022-09-21T23:10:55.127Z,1.58
2022-09-21T23:13:21.658Z,1.40
2022-09-21T23:15:48.328Z,3.33
2022-09-21T23:18:14.847Z,1.15
2022-09-21T23:20:41.439Z,1.73
2022-09-21T23:23:08.047Z,1.52
2022-09-21T23:25:34.536Z,1.10
2022-09-21T23:28:01.588Z,1.30
2022-09-21T23:30:28.111Z,1.30
2022-09-21T23:32:54.656Z,2.95
2022-09-21T23:35:21.210Z,1.23
2022-09-21T23:37:47.768Z,2.05
2022-09-21T23:40:14.674Z,2.55
2022-09-21T23:42:41.160Z,0.95
2022-09-21T23:45:07.985Z,2.30
2022-09-21T23:47:34.469Z,1.35
2022-09-21T23:50:00.989Z,1.25
2022-09-21T23:52:28.650Z,1.60
2022-09-21T23:54:55.174Z,1.25
2022-09-21T23:57:21.707Z,1.73
2022-09-21T23:59:50.135Z,1.52
